Terminal Aerodrome Forecast
Issued by NWS Melbourne, FL

Home | Current Version | Previous Version | Text Only | Print | Product List | Glossary On
Versions: 1 2 3 4 5 6 7 8 9 10 11 12 13 14 15 16 17 18 19 20 21
000
FTUS42 KMLB 282328
TAFMCO
TAF
KMCO 282328Z 2900/2924 06009KT P6SM FEW060 SCT100 BKN250
     FM290300 VRB03KT P6SM SCT250
     FM291400 26005KT P6SM SCT030
     FM292100 06009KT P6SM SCT060 BKN250=

USA.gov is the U.S. government's official web portal to all federal, state and local government web resources and services.